Glenbrook Heights, California
Current Conditions -  °F | °C
As of 7:40 PM on Friday 28 Nov 2014 (Local Time) from KGOO Reporting Station
Overcast Overcast  
Wind Chill: 50°   Ceiling: 6500
Heat Index: 50°   Visibility: 10mi
Dew Point: 36°   Wind: 3mph
Humidity: 58%   Direction: 160°SSE
Pressure: 29.9"   Gusts: NA
Location:  39.2183°N, 120.924°W
Report Text: KGOO 290340Z AUTO 16003KT 10SM FEW046 BKN065 OVC075 10/02 A2990 RMK AO1
Loading
Personal Weather Stations






























Interactive Weather Map New forecast layout! Learn more

10-Day Weather Forecast

Advertisements
Track Severe Weather on mobile